| time (UTC) | temp F | wind direction | speed MPH | gust MPH | rain 1hr in | rain 24hr in | rain mn in | humidity % | barometer mb |
| 20260904213106 | 93 | 131 | 1.0 | 5.0 | 0.00 | 0.16 | 0.06 | 59 | 1013.3 |
| 20260904211602 | 93 | 123 | 2.0 | 5.0 | 0.00 | 0.16 | 0.06 | 57 | 1013.5 |
| 20260904210108 | 93 | 134 | 0.0 | 5.0 | 0.00 | 0.16 | 0.06 | 58 | 1013.5 |
| 20260904204601 | 94 | 129 | 1.0 | 4.0 | 0.00 | 0.16 | 0.06 | 59 | 1013.7 |
| 20260904203101 | 95 | 136 | 0.0 | 2.0 | 0.00 | 0.16 | 0.06 | 59 | 1014.2 |
| 20260904201553 | 93 | 146 | 0.0 | 1.0 | 0.00 | 0.16 | 0.06 | 64 | 1014.2 |
| 20260904200056 | 91 | 134 | 1.0 | 4.0 | 0.00 | 0.16 | 0.06 | 67 | 1014.3 |
| 20260904194601 | 90 | 131 | 1.0 | 4.0 | 0.00 | 0.16 | 0.06 | 69 | 1014.8 |
| 20260904193105 | 88 | 124 | 1.0 | 3.0 | 0.00 | 0.16 | 0.06 | 75 | 1014.9 |
| 20260904191617 | 85 | 134 | 0.0 | 2.0 | 0.00 | 0.16 | 0.06 | 80 | 1014.8 |
| 20260904190056 | 83 | 138 | 0.0 | 1.0 | 0.00 | 0.16 | 0.06 | 81 | 1015.1 |
| 20260904184606 | 83 | 122 | 0.0 | 4.0 | 0.00 | 0.16 | 0.06 | 80 | 1015.6 |
| 20260904183100 | 83 | 125 | 1.0 | 3.0 | 0.00 | 0.16 | 0.06 | 79 | 1016.0 |
| 20260904181558 | 83 | 148 | 0.0 | 2.0 | 0.00 | 0.16 | 0.06 | 80 | 1016.1 |
| 20260904180103 | 84 | 147 | 1.0 | 5.0 | 0.00 | 0.16 | 0.06 | 79 | 1016.2 |
| 20260904174556 | 84 | 154 | 1.0 | 2.0 | 0.00 | 0.16 | 0.06 | 74 | 1016.3 |
| 20260904173106 | 82 | 134 | 0.0 | 3.0 | 0.06 | 0.16 | 0.06 | 80 | 1016.1 |
| 20260904171604 | 80 | 146 | 0.0 | 3.0 | 0.06 | 0.16 | 0.06 | 88 | 1016.5 |
| 20260904170109 | 79 | 126 | 2.0 | 3.0 | 0.06 | 0.16 | 0.06 | 87 | 1016.3 |
| 20260904164610 | 79 | 130 | 0.0 | 7.0 | 0.06 | 0.16 | 0.06 | 87 | 1016.3 |
| 20260904163104 | 81 | 124 | 3.0 | 7.0 | 0.00 | 0.10 | 0.00 | 77 | 1016.4 |
| 20260904161602 | 82 | 131 | 2.0 | 11.0 | 0.00 | 0.10 | 0.00 | 77 | 1016.1 |
| 20260904160100 | 86 | 91 | 2.0 | 8.0 | 0.00 | 0.10 | 0.00 | 73 | 1016.0 |
| 20260904154606 | 88 | 131 | 3.0 | 7.0 | 0.00 | 0.10 | 0.00 | 75 | 1015.7 |
| 20260904153103 | 89 | 129 | 2.0 | 7.0 | 0.00 | 0.10 | 0.00 | 73 | 1015.3 |
| 20260904151559 | 88 | 124 | 2.0 | 4.0 | 0.00 | 0.10 | 0.00 | 75 | 1015.5 |
| 20260904150109 | 88 | 135 | 1.0 | 5.0 | 0.00 | 0.10 | 0.00 | 77 | 1015.3 |
| 20260904144608 | 87 | 124 | 1.0 | 3.0 | 0.00 | 0.10 | 0.00 | 78 | 1015.4 |
| 20260904143109 | 87 | 133 | 1.0 | 4.0 | 0.00 | 0.10 | 0.00 | 81 | 1015.3 |
| 20260904141606 | 86 | 127 | 2.0 | 4.0 | 0.00 | 0.10 | 0.00 | 81 | 1015.2 |
| 20260904140109 | 86 | 129 | 1.0 | 4.0 | 0.00 | 0.10 | 0.00 | 83 | 1015.2 |
| 20260904134616 | 85 | 130 | 0.0 | 3.0 | 0.00 | 0.10 | 0.00 | 85 | 1015.2 |
| 20260904133105 | 84 | 134 | 0.0 | 4.0 | 0.00 | 0.10 | 0.00 | 87 | 1015.1 |
| 20260904131601 | 83 | 131 | 1.0 | 2.0 | 0.00 | 0.10 | 0.00 | 88 | 1014.9 |
| 20260904130105 | 81 | 0 | 0.0 | 2.0 | 0.00 | 0.10 | 0.00 | 91 | 1014.7 |
| 20260904124625 | 81 | 131 | 0.0 | 1.0 | 0.00 | 0.10 | 0.00 | 92 | 1014.6 |
| 20260904123106 | 80 | 0 | 0.0 | 3.0 | 0.00 | 0.10 | 0.00 | 92 | 1014.3 |
| 20260904121602 | 80 | 127 | 1.0 | 2.0 | 0.00 | 0.10 | 0.00 | 92 | 1014.4 |
| 20260904120104 | 80 | 0 | 0.0 | 0.0 | 0.00 | 0.10 | 0.00 | 92 | 1014.2 |
| 20260904114605 | 80 | 0 | 0.0 | 0.0 | 0.00 | 0.10 | 0.00 | 92 | 1014.2 |
| 20260904113100 | 80 | 0 | 0.0 | 0.0 | 0.00 | 0.10 | 0.00 | 92 | 1014.3 |
| 20260904111607 | 80 | 0 | 0.0 | 0.0 | 0.00 | 0.10 | 0.00 | 91 | 1014.1 |
| 20260904104602 | 80 | 0 | 0.0 | 0.0 | 0.00 | 0.10 | 0.00 | 91 | 1013.9 |
| 20260904103058 | 80 | 0 | 0.0 | 0.0 | 0.00 | 0.10 | 0.00 | 91 | 1013.8 |
| 20260904101600 | 80 | 0 | 0.0 | 1.0 | 0.00 | 0.10 | 0.00 | 91 | 1013.8 |
| 20260904100112 | 80 | 0 | 0.0 | 0.0 | 0.00 | 0.10 | 0.00 | 91 | 1013.7 |
| 20260904094601 | 80 | 0 | 0.0 | 0.0 | 0.00 | 0.10 | 0.00 | 91 | 1013.5 |
| 20260904093100 | 80 | 0 | 0.0 | 0.0 | 0.00 | 0.10 | 0.00 | 91 | 1013.4 |
| 20260904091604 | 80 | 0 | 0.0 | 1.0 | 0.00 | 0.10 | 0.00 | 90 | 1013.5 |
| 20260904090104 | 80 | 0 | 0.0 | 1.0 | 0.00 | 0.10 | 0.00 | 90 | 1013.5 |
| 20260904084559 | 80 | 132 | 0.0 | 2.0 | 0.00 | 0.10 | 0.00 | 90 | 1013.6 |
| 20260904083102 | 80 | 0 | 0.0 | 0.0 | 0.00 | 0.10 | 0.00 | 90 | 1013.7 |
| 20260904081605 | 80 | 132 | 0.0 | 2.0 | 0.00 | 0.10 | 0.00 | 90 | 1013.6 |
| 20260904074614 | 80 | 0 | 0.0 | 0.0 | 0.00 | 0.10 | 0.00 | 91 | 1013.8 |
| 20260904073100 | 80 | 0 | 0.0 | 0.0 | 0.00 | 0.10 | 0.00 | 91 | 1013.9 |
| 20260904071558 | 81 | 0 | 0.0 | 1.0 | 0.00 | 0.10 | 0.00 | 91 | 1013.8 |
| 20260904064558 | 81 | 131 | 0.0 | 1.0 | 0.00 | 0.10 | 0.00 | 90 | 1014.1 |
| 20260904063106 | 81 | 127 | 1.0 | 3.0 | 0.00 | 0.10 | 0.00 | 90 | 1014.2 |
| 20260904061606 | 81 | 124 | 2.0 | 5.0 | 0.00 | 0.10 | 0.00 | 90 | 1014.1 |
| 20260904060106 | 81 | 110 | 3.0 | 7.0 | 0.00 | 0.10 | 0.00 | 89 | 1013.9 |
| 20260904054559 | 81 | 128 | 2.0 | 4.0 | 0.00 | 0.10 | 0.00 | 89 | 1013.9 |
| 20260904053100 | 81 | 127 | 2.0 | 5.0 | 0.00 | 0.10 | 0.00 | 89 | 1014.2 |
| 20260904051602 | 81 | 128 | 1.0 | 4.0 | 0.00 | 0.10 | 0.00 | 89 | 1014.0 |
| 20260904050105 | 81 | 127 | 2.0 | 5.0 | 0.00 | 0.10 | 0.00 | 88 | 1013.8 |
| 20260904044558 | 82 | 130 | 1.0 | 6.0 | 0.00 | 0.10 | 0.10 | 88 | 1013.9 |
| 20260904043057 | 82 | 128 | 2.0 | 6.0 | 0.00 | 0.10 | 0.10 | 88 | 1013.7 |
| 20260904041601 | 82 | 125 | 2.0 | 4.0 | 0.00 | 0.10 | 0.10 | 88 | 1013.9 |
| 20260904034558 | 82 | 104 | 1.0 | 5.0 | 0.00 | 0.10 | 0.10 | 88 | 1014.0 |
| 20260904033105 | 82 | 127 | 2.0 | 3.0 | 0.00 | 0.10 | 0.10 | 88 | 1014.2 |
| 20260904031601 | 82 | 128 | 1.0 | 3.0 | 0.00 | 0.10 | 0.10 | 88 | 1014.0 |
| 20260904020059 | 82 | 129 | 2.0 | 5.0 | 0.00 | 0.10 | 0.10 | 87 | 1013.5 |
| 20260904014609 | 82 | 127 | 1.0 | 2.0 | 0.00 | 0.10 | 0.10 | 88 | 1013.4 |
| 20260904013101 | 82 | 131 | 1.0 | 2.0 | 0.00 | 0.10 | 0.10 | 87 | 1013.1 |
| 20260904011604 | 82 | 129 | 1.0 | 2.0 | 0.00 | 0.10 | 0.10 | 86 | 1013.0 |
| 20260904010116 | 82 | 129 | 1.0 | 4.0 | 0.00 | 0.10 | 0.10 | 85 | 1013.0 |
| 20260904004559 | 82 | 130 | 1.0 | 2.0 | 0.00 | 0.10 | 0.10 | 85 | 1013.2 |
| 20260904003108 | 82 | 120 | 1.0 | 2.0 | 0.00 | 0.10 | 0.10 | 85 | 1013.3 |
| 20260904001603 | 81 | 0 | 0.0 | 2.0 | 0.00 | 0.10 | 0.10 | 87 | 1013.4 |
| 20260904000104 | 81 | 129 | 1.0 | 2.0 | 0.00 | 0.10 | 0.10 | 89 | 1013.3 |
| 20260903234601 | 80 | 143 | 0.0 | 1.0 | 0.00 | 0.10 | 0.10 | 89 | 1013.3 |
| 20260903233107 | 80 | 143 | 0.0 | 1.0 | 0.00 | 0.10 | 0.10 | 89 | 1013.2 |
| 20260903231600 | 80 | 143 | 0.0 | 1.0 | 0.00 | 0.10 | 0.10 | 90 | 1013.3 |
| 20260903230103 | 80 | 147 | 0.0 | 1.0 | 0.00 | 0.10 | 0.10 | 90 | 1013.5 |
| 20260903224608 | 79 | 0 | 0.0 | 2.0 | 0.00 | 0.10 | 0.10 | 90 | 1013.5 |
| 20260903223103 | 79 | 139 | 0.0 | 2.0 | 0.01 | 0.10 | 0.10 | 90 | 1013.2 |
| 20260903221601 | 79 | 152 | 1.0 | 2.0 | 0.03 | 0.10 | 0.10 | 91 | 1013.5 |
| 20260903220101 | 79 | 0 | 0.0 | 1.0 | 0.05 | 0.10 | 0.10 | 92 | 1013.4 |
| 20260903214606 | 79 | 148 | 1.0 | 3.0 | 0.07 | 0.10 | 0.10 | 92 | 1013.9 |